createdAt,value
2017-07-10T00:00:02.794Z,19.8
2017-07-10T00:00:12.788Z,19.7
2017-07-10T00:00:22.785Z,19.8
2017-07-10T00:00:32.776Z,19.8
2017-07-10T00:00:42.776Z,19.8
2017-07-10T00:00:52.769Z,19.8
2017-07-10T00:01:02.760Z,19.8
2017-07-10T00:01:12.757Z,19.8
2017-07-10T00:01:22.751Z,19.7
2017-07-10T00:01:32.750Z,19.8
2017-07-10T00:01:42.745Z,19.8
2017-07-10T00:01:52.739Z,19.7
2017-07-10T00:02:02.738Z,19.8
2017-07-10T00:02:12.732Z,19.8
2017-07-10T00:02:22.726Z,19.8
2017-07-10T00:02:32.720Z,19.8
2017-07-10T00:02:42.715Z,19.7
2017-07-10T00:02:52.711Z,19.6
2017-07-10T00:03:02.705Z,19.7
2017-07-10T00:03:12.698Z,19.6
2017-07-10T00:03:22.697Z,19.7
2017-07-10T00:03:32.694Z,19.7
2017-07-10T00:03:42.686Z,19.7
2017-07-10T00:03:52.682Z,19.6
2017-07-10T00:04:02.677Z,19.7
2017-07-10T00:04:12.671Z,19.8
2017-07-10T00:04:22.670Z,19.6
2017-07-10T00:04:32.661Z,19.6
2017-07-10T00:04:42.661Z,19.7
2017-07-10T00:04:52.653Z,19.7
2017-07-10T00:05:02.648Z,19.7
2017-07-10T00:05:12.641Z,19.7
2017-07-10T00:05:22.636Z,19.6
2017-07-10T00:05:32.639Z,19.6
2017-07-10T00:05:42.629Z,19.8
2017-07-10T00:05:52.622Z,19.6
2017-07-10T00:06:02.621Z,19.7
2017-07-10T00:06:12.612Z,19.7
2017-07-10T00:06:22.610Z,19.6
2017-07-10T00:06:32.604Z,19.7
2017-07-10T00:06:42.603Z,19.6
2017-07-10T00:06:52.598Z,19.6
2017-07-10T00:07:02.590Z,19.6
2017-07-10T00:07:12.586Z,19.7
2017-07-10T00:07:22.584Z,19.6
2017-07-10T00:07:32.578Z,19.7
2017-07-10T00:07:42.572Z,19.7
2017-07-10T00:07:52.569Z,19.6
2017-07-10T00:08:02.561Z,19.6
2017-07-10T00:08:12.556Z,19.7
2017-07-10T00:08:22.552Z,19.7
2017-07-10T00:08:32.551Z,19.6
2017-07-10T00:08:42.546Z,19.6
2017-07-10T00:08:52.541Z,19.5
2017-07-10T00:09:02.531Z,19.6
2017-07-10T00:09:12.526Z,19.6
2017-07-10T00:09:22.526Z,19.5
2017-07-10T00:09:32.522Z,19.6
2017-07-10T00:09:42.512Z,19.6
2017-07-10T00:09:52.509Z,19.7
2017-07-10T00:10:02.505Z,19.6
2017-07-10T00:10:12.503Z,19.5
2017-07-10T00:10:22.493Z,19.5
2017-07-10T00:10:32.489Z,19.5
2017-07-10T00:10:42.486Z,19.5
2017-07-10T00:10:52.482Z,19.6
2017-07-10T00:11:02.474Z,19.6
2017-07-10T00:11:12.473Z,19.6
2017-07-10T00:11:22.470Z,19.6
2017-07-10T00:11:32.464Z,19.5
2017-07-10T00:11:42.460Z,19.5
2017-07-10T00:11:52.454Z,19.6
2017-07-10T00:12:02.450Z,19.5
2017-07-10T00:12:12.443Z,19.5
2017-07-10T00:12:22.438Z,19.6
2017-07-10T00:12:32.432Z,19.5
2017-07-10T00:12:42.430Z,19.6
2017-07-10T00:12:52.425Z,19.5
2017-07-10T00:13:02.421Z,19.5
2017-07-10T00:13:12.416Z,19.5
2017-07-10T00:13:22.412Z,19.6
2017-07-10T00:13:32.404Z,19.5
2017-07-10T00:13:42.398Z,19.5
2017-07-10T00:13:52.392Z,19.5
2017-07-10T00:14:02.393Z,19.5
2017-07-10T00:14:12.384Z,19.6
2017-07-10T00:14:22.384Z,19.5
2017-07-10T00:14:32.378Z,19.5
2017-07-10T00:14:42.374Z,19.5
2017-07-10T00:14:52.367Z,19.5
2017-07-10T00:15:02.360Z,19.5
2017-07-10T00:15:12.353Z,19.5
2017-07-10T00:15:22.351Z,19.5
2017-07-10T00:15:32.346Z,19.5
2017-07-10T00:15:42.343Z,19.5
2017-07-10T00:15:52.334Z,19.5
2017-07-10T00:16:02.335Z,19.6
2017-07-10T00:16:12.325Z,19.6
2017-07-10T00:16:22.322Z,19.6
2017-07-10T00:16:32.315Z,19.5
2017-07-10T00:16:42.314Z,19.5
2017-07-10T00:16:52.311Z,19.5
2017-07-10T00:17:02.305Z,19.5
2017-07-10T00:17:12.296Z,19.4
2017-07-10T00:17:22.296Z,19.4
2017-07-10T00:17:32.289Z,19.5
2017-07-10T00:17:42.285Z,19.5
2017-07-10T00:17:52.280Z,19.5
2017-07-10T00:18:02.274Z,19.5
2017-07-10T00:18:12.268Z,19.4
2017-07-10T00:18:22.266Z,19.4
2017-07-10T00:18:32.260Z,19.5
2017-07-10T00:18:42.259Z,19.4
2017-07-10T00:18:52.254Z,19.4
2017-07-10T00:19:02.246Z,19.5
2017-07-10T00:19:12.238Z,19.4
2017-07-10T00:19:22.236Z,19.4
2017-07-10T00:19:32.228Z,19.5
2017-07-10T00:19:42.228Z,19.4
2017-07-10T00:19:52.223Z,19.4
2017-07-10T00:20:02.217Z,19.5
2017-07-10T00:20:12.213Z,19.5
2017-07-10T00:20:22.205Z,19.4
2017-07-10T00:20:32.206Z,19.5
2017-07-10T00:20:42.196Z,19.5
2017-07-10T00:20:52.194Z,19.4
2017-07-10T00:21:02.191Z,19.4
2017-07-10T00:21:12.181Z,19.3
2017-07-10T00:21:22.176Z,19.4
2017-07-10T00:21:32.174Z,19.4
2017-07-10T00:21:42.166Z,19.4
2017-07-10T00:21:52.164Z,19.3
2017-07-10T00:22:02.159Z,19.3
2017-07-10T00:22:12.153Z,19.4
2017-07-10T00:22:22.152Z,19.4
2017-07-10T00:22:32.144Z,19.4
2017-07-10T00:22:42.143Z,19.4
2017-07-10T00:22:52.137Z,19.4
2017-07-10T00:23:02.129Z,19.4
2017-07-10T00:23:12.123Z,19.4
2017-07-10T00:23:22.122Z,19.4
2017-07-10T00:23:32.115Z,19.4
2017-07-10T00:23:42.112Z,19.4
2017-07-10T00:23:52.104Z,19.4
2017-07-10T00:24:02.105Z,19.4
2017-07-10T00:24:12.097Z,19.4
2017-07-10T00:24:22.095Z,19.4
2017-07-10T00:24:32.087Z,19.3
2017-07-10T00:24:42.085Z,19.5
2017-07-10T00:24:52.079Z,19.4
2017-07-10T00:25:02.070Z,19.4
2017-07-10T00:25:12.070Z,19.3
2017-07-10T00:25:22.064Z,19.4
2017-07-10T00:25:32.058Z,19.4
2017-07-10T00:25:42.058Z,19.4
2017-07-10T00:25:52.053Z,19.3
2017-07-10T00:26:02.047Z,19.4
2017-07-10T00:26:12.043Z,19.4
2017-07-10T00:26:22.036Z,19.3
2017-07-10T00:26:32.029Z,19.3
2017-07-10T00:26:42.027Z,19.4
2017-07-10T00:26:52.020Z,19.4
2017-07-10T00:27:02.016Z,19.4
2017-07-10T00:27:12.012Z,19.4
2017-07-10T00:27:22.005Z,19.4
2017-07-10T00:27:32.002Z,19.4
2017-07-10T00:27:41.997Z,19.4
2017-07-10T00:27:51.994Z,19.4
2017-07-10T00:28:01.985Z,19.4
2017-07-10T00:28:11.981Z,19.4
2017-07-10T00:28:21.978Z,19.3
2017-07-10T00:28:31.975Z,19.4
2017-07-10T00:28:41.965Z,19.4
2017-07-10T00:28:51.965Z,19.4
2017-07-10T00:29:01.961Z,19.4
2017-07-10T00:29:11.953Z,19.3
2017-07-10T00:29:21.948Z,19.3
2017-07-10T00:29:31.943Z,19.4
2017-07-10T00:29:41.941Z,19.4
2017-07-10T00:29:51.931Z,19.4
2017-07-10T00:30:01.926Z,19.4
2017-07-10T00:30:11.925Z,19.4
2017-07-10T00:30:21.917Z,19.4
2017-07-10T00:30:31.913Z,19.5
2017-07-10T00:30:41.910Z,19.4
2017-07-10T00:30:51.904Z,19.4
2017-07-10T00:31:01.897Z,19.4
2017-07-10T00:31:11.896Z,19.4
2017-07-10T00:31:21.894Z,19.4
2017-07-10T00:31:31.887Z,19.4
2017-07-10T00:31:41.884Z,19.4
2017-07-10T00:31:51.876Z,19.3
2017-07-10T00:32:01.874Z,19.5
2017-07-10T00:32:11.867Z,19.4
2017-07-10T00:32:21.860Z,19.5
2017-07-10T00:32:31.859Z,19.4
2017-07-10T00:32:41.852Z,19.4
2017-07-10T00:32:51.846Z,19.4
2017-07-10T00:33:01.845Z,19.4
2017-07-10T00:33:11.837Z,19.5
2017-07-10T00:33:21.834Z,19.4
2017-07-10T00:33:31.828Z,19.4
2017-07-10T00:33:41.821Z,19.4
2017-07-10T00:33:51.818Z,19.3
2017-07-10T00:34:01.817Z,19.4
2017-07-10T00:34:11.809Z,19.3
2017-07-10T00:34:21.805Z,19.4
2017-07-10T00:34:31.802Z,19.4
2017-07-10T00:34:41.794Z,19.4
2017-07-10T00:34:51.791Z,19.3
2017-07-10T00:35:01.785Z,19.3
2017-07-10T00:35:11.779Z,19.3
2017-07-10T00:35:21.777Z,19.3
2017-07-10T00:35:31.769Z,19.3
2017-07-10T00:35:41.764Z,19.3
2017-07-10T00:35:51.760Z,19.3
2017-07-10T00:36:01.758Z,19.4
2017-07-10T00:36:11.748Z,19.4
2017-07-10T00:36:21.745Z,19.3
2017-07-10T00:36:31.742Z,19.3
2017-07-10T00:36:41.740Z,19.4
2017-07-10T00:36:51.729Z,19.3
2017-07-10T00:37:01.724Z,19.4
2017-07-10T00:37:11.723Z,19.3
2017-07-10T00:37:21.717Z,19.4
2017-07-10T00:37:31.714Z,19.3
2017-07-10T00:37:41.708Z,19.3
2017-07-10T00:37:51.703Z,19.3
2017-07-10T00:38:01.702Z,19.3
2017-07-10T00:38:11.690Z,19.3
2017-07-10T00:38:21.687Z,19.4
2017-07-10T00:38:31.683Z,19.3
2017-07-10T00:38:41.682Z,19.4
2017-07-10T00:38:51.678Z,19.3
2017-07-10T00:39:01.669Z,19.3
2017-07-10T00:39:11.663Z,19.3
2017-07-10T00:39:21.660Z,19.4
2017-07-10T00:39:31.658Z,19.4
2017-07-10T00:39:41.653Z,19.4
2017-07-10T00:39:51.644Z,19.4
2017-07-10T00:40:01.643Z,19.3
2017-07-10T00:40:11.637Z,19.4
2017-07-10T00:40:21.627Z,19.4
2017-07-10T00:40:31.627Z,19.4
2017-07-10T00:40:41.622Z,19.4
2017-07-10T00:40:51.617Z,19.3
2017-07-10T00:41:01.612Z,19.4
2017-07-10T00:41:11.604Z,19.4
2017-07-10T00:41:21.603Z,19.3
2017-07-10T00:41:31.600Z,19.3
2017-07-10T00:41:41.592Z,19.3
2017-07-10T00:41:51.585Z,19.3
2017-07-10T00:42:01.580Z,19.3
2017-07-10T00:42:11.575Z,19.4
2017-07-10T00:42:21.573Z,19.4
2017-07-10T00:42:31.567Z,19.3
2017-07-10T00:42:41.561Z,19.3
2017-07-10T00:42:51.558Z,19.3
2017-07-10T00:43:01.557Z,19.3
2017-07-10T00:43:11.546Z,19.3
2017-07-10T00:43:21.545Z,19.3
2017-07-10T00:43:31.538Z,19.3
2017-07-10T00:43:41.536Z,19.3
2017-07-10T00:43:51.526Z,19.3
2017-07-10T00:44:01.524Z,19.3
2017-07-10T00:44:11.517Z,19.2
2017-07-10T00:44:21.514Z,19.3
2017-07-10T00:44:31.513Z,19.2
2017-07-10T00:44:41.509Z,19.3
2017-07-10T00:44:51.502Z,19.2
2017-07-10T00:45:01.499Z,19.2
2017-07-10T00:45:11.492Z,19.3
2017-07-10T00:45:21.484Z,19.2
2017-07-10T00:45:31.481Z,19.2
2017-07-10T00:45:41.474Z,19.3
2017-07-10T00:45:51.469Z,19.3
2017-07-10T00:46:01.469Z,19.3
2017-07-10T00:46:11.459Z,19.3
2017-07-10T00:46:21.457Z,19.2
2017-07-10T00:46:31.449Z,19.2
2017-07-10T00:46:41.507Z,19.2
2017-07-10T00:46:51.443Z,19.2
2017-07-10T00:47:01.439Z,19.2
2017-07-10T00:47:11.432Z,19.2
2017-07-10T00:47:21.430Z,19.3
2017-07-10T00:47:31.422Z,19.3
2017-07-10T00:47:41.419Z,19.2
2017-07-10T00:47:51.416Z,19.2
2017-07-10T00:48:01.406Z,19.2
2017-07-10T00:48:11.404Z,19.3
2017-07-10T00:48:21.402Z,19.3
2017-07-10T00:48:31.398Z,19.3
2017-07-10T00:48:41.390Z,19.3
2017-07-10T00:48:51.390Z,19.2
2017-07-10T00:49:01.380Z,19.3
2017-07-10T00:49:11.375Z,19.3
2017-07-10T00:49:21.373Z,19.4
2017-07-10T00:49:31.366Z,19.4
2017-07-10T00:49:41.363Z,19.3
2017-07-10T00:49:51.358Z,19.4
2017-07-10T00:50:01.354Z,19.4
2017-07-10T00:50:11.343Z,19.3
2017-07-10T00:50:21.339Z,19.4
2017-07-10T00:50:31.337Z,19.4
2017-07-10T00:50:41.331Z,19.3
2017-07-10T00:50:51.330Z,19.4
2017-07-10T00:51:01.321Z,19.4
2017-07-10T00:51:11.318Z,19.4
2017-07-10T00:51:21.314Z,19.3
2017-07-10T00:51:31.307Z,19.4
2017-07-10T00:51:41.307Z,19.3
2017-07-10T00:51:51.301Z,19.3
2017-07-10T00:52:01.294Z,19.4
2017-07-10T00:52:11.290Z,19.4
2017-07-10T00:52:21.282Z,19.3
2017-07-10T00:52:31.280Z,19.3
2017-07-10T00:52:41.277Z,19.3
2017-07-10T00:52:51.268Z,19.3
2017-07-10T00:53:01.267Z,19.4
2017-07-10T00:53:11.256Z,19.4
2017-07-10T00:53:21.258Z,19.4
2017-07-10T00:53:31.252Z,19.4
2017-07-10T00:53:41.243Z,19.3
2017-07-10T00:53:51.296Z,19.4
2017-07-10T00:54:01.236Z,19.3
2017-07-10T00:54:11.230Z,19.3
2017-07-10T00:54:21.224Z,19.3
2017-07-10T00:54:31.221Z,19.3
2017-07-10T00:54:41.216Z,19.4
2017-07-10T00:54:51.212Z,19.4
2017-07-10T00:55:01.203Z,19.4
2017-07-10T00:55:11.202Z,19.4
2017-07-10T00:55:21.196Z,19.4
2017-07-10T00:55:31.191Z,19.4
2017-07-10T00:55:41.189Z,19.4
2017-07-10T00:55:51.183Z,19.4
2017-07-10T00:56:01.174Z,19.3
2017-07-10T00:56:11.172Z,19.3
2017-07-10T00:56:21.169Z,19.3
2017-07-10T00:56:31.164Z,19.3
2017-07-10T00:56:41.159Z,19.3
2017-07-10T00:56:51.154Z,19.3
2017-07-10T00:57:01.146Z,19.4
2017-07-10T00:57:11.140Z,19.4
2017-07-10T00:57:21.140Z,19.3
2017-07-10T00:57:31.134Z,19.3
2017-07-10T00:57:41.126Z,19.4
2017-07-10T00:57:51.124Z,19.4
2017-07-10T00:58:01.117Z,19.4
2017-07-10T00:58:11.111Z,19.4
2017-07-10T00:58:21.113Z,19.4
2017-07-10T00:58:31.105Z,19.4
2017-07-10T00:58:41.103Z,19.3
2017-07-10T00:58:51.093Z,19.4
2017-07-10T00:59:01.091Z,19.4
2017-07-10T00:59:11.085Z,19.4
2017-07-10T00:59:21.081Z,19.4
2017-07-10T00:59:31.073Z,19.4
2017-07-10T00:59:41.072Z,19.4
2017-07-10T00:59:51.065Z,19.4
2017-07-10T01:00:01.065Z,19.3
2017-07-10T01:00:11.054Z,19.4
2017-07-10T01:00:21.053Z,19.3
2017-07-10T01:00:31.044Z,19.3
2017-07-10T01:00:41.042Z,19.4
2017-07-10T01:00:51.034Z,19.3
2017-07-10T01:01:01.033Z,19.3
2017-07-10T01:01:11.030Z,19.3
2017-07-10T01:01:21.024Z,19.3
2017-07-10T01:01:31.019Z,19.3
2017-07-10T01:01:41.009Z,19.3
2017-07-10T01:01:51.011Z,19.4
2017-07-10T01:02:01.001Z,19.3
2017-07-10T01:02:10.995Z,19.3
2017-07-10T01:02:20.995Z,19.4
2017-07-10T01:02:30.991Z,19.3
2017-07-10T01:02:40.983Z,19.3
2017-07-10T01:02:50.980Z,19.2
2017-07-10T01:03:00.971Z,19.3
2017-07-10T01:03:10.966Z,19.3
2017-07-10T01:03:20.968Z,19.2
2017-07-10T01:03:30.957Z,19.3
2017-07-10T01:03:40.952Z,19.3
2017-07-10T01:03:50.947Z,19.3
2017-07-10T01:04:00.944Z,19.2
2017-07-10T01:04:10.943Z,19.3
2017-07-10T01:04:20.933Z,19.3
2017-07-10T01:04:30.931Z,19.2
2017-07-10T01:04:40.929Z,19.3
2017-07-10T01:04:50.921Z,19.3
2017-07-10T01:05:00.913Z,19.3
2017-07-10T01:05:10.910Z,19.3
2017-07-10T01:05:20.903Z,19.2
2017-07-10T01:05:30.902Z,19.2
2017-07-10T01:05:40.896Z,19.3
2017-07-10T01:05:50.895Z,19.2
2017-07-10T01:06:00.891Z,19.3
2017-07-10T01:06:10.884Z,19.2
2017-07-10T01:06:20.880Z,19.2
2017-07-10T01:06:30.875Z,19.3
2017-07-10T01:06:40.867Z,19.3
2017-07-10T01:06:50.864Z,19.3
2017-07-10T01:07:00.858Z,19.3
2017-07-10T01:07:10.856Z,19.3
2017-07-10T01:07:20.847Z,19.3
2017-07-10T01:07:30.844Z,19.2
2017-07-10T01:07:40.838Z,19.2
2017-07-10T01:07:50.832Z,19.3
2017-07-10T01:08:00.829Z,19.2
2017-07-10T01:08:10.825Z,19.2
2017-07-10T01:08:20.820Z,19.3
2017-07-10T01:08:30.816Z,19.3
2017-07-10T01:08:40.813Z,19.4
2017-07-10T01:08:50.808Z,19.4
2017-07-10T01:09:00.800Z,19.3
2017-07-10T01:09:10.797Z,19.4
2017-07-10T01:09:20.793Z,19.3
2017-07-10T01:09:30.787Z,19.3
2017-07-10T01:09:40.777Z,19.4
2017-07-10T01:09:50.775Z,19.3
2017-07-10T01:10:00.769Z,19.3
2017-07-10T01:10:10.763Z,19.3
2017-07-10T01:10:20.759Z,19.3
2017-07-10T01:10:30.756Z,19.3
2017-07-10T01:10:40.752Z,19.3
2017-07-10T01:10:50.748Z,19.3
2017-07-10T01:11:00.739Z,19.3
2017-07-10T01:11:10.735Z,19.3
2017-07-10T01:11:20.735Z,19.3
2017-07-10T01:11:30.731Z,19.3
2017-07-10T01:11:40.723Z,19.4
2017-07-10T01:11:50.715Z,19.4
2017-07-10T01:12:00.712Z,19.3
2017-07-10T01:12:10.710Z,19.3
2017-07-10T01:12:20.700Z,19.3
2017-07-10T01:12:30.702Z,19.3
2017-07-10T01:12:40.691Z,19.3
2017-07-10T01:12:50.688Z,19.3
2017-07-10T01:13:00.684Z,19.3
2017-07-10T01:13:10.681Z,19.3
2017-07-10T01:13:20.674Z,19.3
2017-07-10T01:13:30.673Z,19.4
2017-07-10T01:13:40.667Z,19.3
2017-07-10T01:13:50.659Z,19.3
2017-07-10T01:14:00.654Z,19.3
2017-07-10T01:14:10.649Z,19.4
2017-07-10T01:14:20.647Z,19.3
2017-07-10T01:14:30.640Z,19.3
2017-07-10T01:14:40.638Z,19.3
2017-07-10T01:14:50.633Z,19.3
2017-07-10T01:15:00.624Z,19.3
2017-07-10T01:15:10.625Z,19.3
2017-07-10T01:15:20.618Z,19.2
2017-07-10T01:15:30.611Z,19.3
2017-07-10T01:15:40.606Z,19.3
2017-07-10T01:15:50.598Z,19.2
2017-07-10T01:16:00.593Z,19.3
2017-07-10T01:16:10.589Z,19.2
2017-07-10T01:16:20.588Z,19.2
2017-07-10T01:16:30.586Z,19.2
2017-07-10T01:16:40.575Z,19.2
2017-07-10T01:16:50.574Z,19.3
2017-07-10T01:17:00.567Z,19.1
2017-07-10T01:17:10.562Z,19.2
2017-07-10T01:17:20.561Z,19.2
2017-07-10T01:17:30.551Z,19.2
2017-07-10T01:17:40.545Z,19.2
2017-07-10T01:17:50.544Z,19.2
2017-07-10T01:18:00.538Z,19.2
2017-07-10T01:18:10.534Z,19.2
2017-07-10T01:18:20.532Z,19.2
2017-07-10T01:18:30.523Z,19.3
2017-07-10T01:18:40.519Z,19.2
2017-07-10T01:18:50.512Z,19.3
2017-07-10T01:19:00.508Z,19.3
2017-07-10T01:19:10.503Z,19.2
2017-07-10T01:19:20.500Z,19.2
2017-07-10T01:19:30.543Z,19.2
2017-07-10T01:19:40.490Z,19.3
2017-07-10T01:19:50.488Z,19.3
2017-07-10T01:20:00.480Z,19.2
2017-07-10T01:20:10.474Z,19.2
2017-07-10T01:20:20.473Z,19.2
2017-07-10T01:20:30.467Z,19.2
2017-07-10T01:20:40.460Z,19.2
2017-07-10T01:20:50.453Z,19.2
2017-07-10T01:21:00.448Z,19.2
2017-07-10T01:21:10.447Z,19.2
2017-07-10T01:21:20.439Z,19.2
2017-07-10T01:21:30.438Z,19.2
2017-07-10T01:21:40.435Z,19.2
2017-07-10T01:21:50.425Z,19.2
2017-07-10T01:22:00.422Z,19.3
2017-07-10T01:22:10.420Z,19.3
2017-07-10T01:22:20.413Z,19.2
2017-07-10T01:22:30.406Z,19.3
2017-07-10T01:22:40.403Z,19.3
2017-07-10T01:22:50.398Z,19.2
2017-07-10T01:23:00.394Z,19.2
2017-07-10T01:23:10.385Z,19.2
2017-07-10T01:23:20.383Z,19.3
2017-07-10T01:23:30.377Z,19.2
2017-07-10T01:23:40.375Z,19.2
2017-07-10T01:23:50.369Z,19.3
2017-07-10T01:24:00.362Z,19.3
2017-07-10T01:24:10.359Z,19.2
2017-07-10T01:24:20.355Z,19.2
2017-07-10T01:24:30.353Z,19.2
2017-07-10T01:24:40.345Z,19.2
2017-07-10T01:24:50.337Z,19.2
2017-07-10T01:25:00.332Z,19.2
2017-07-10T01:25:10.329Z,19.2
2017-07-10T01:25:20.325Z,19.2
2017-07-10T01:25:30.318Z,19.2
2017-07-10T01:25:40.315Z,19.2
2017-07-10T01:25:50.310Z,19.2
2017-07-10T01:26:00.306Z,19.2
2017-07-10T01:26:10.300Z,19.2
2017-07-10T01:26:20.299Z,19.2
2017-07-10T01:26:30.293Z,19.2
2017-07-10T01:26:40.282Z,19.2
2017-07-10T01:26:50.284Z,19.2
2017-07-10T01:27:00.276Z,19.2
2017-07-10T01:27:10.269Z,19.1
2017-07-10T01:27:20.270Z,19.2
2017-07-10T01:27:30.266Z,19.2
2017-07-10T01:27:40.260Z,19.2
2017-07-10T01:27:50.252Z,19.2
2017-07-10T01:28:00.247Z,19.2
2017-07-10T01:28:10.243Z,19.2
2017-07-10T01:28:20.239Z,19.2
2017-07-10T01:28:30.231Z,19.2
2017-07-10T01:28:40.228Z,19.2
2017-07-10T01:28:50.227Z,19.2
2017-07-10T01:29:00.221Z,19.2
2017-07-10T01:29:10.212Z,19.2
2017-07-10T01:29:20.208Z,19.2
2017-07-10T01:29:30.201Z,19.1
2017-07-10T01:29:40.200Z,19.1
2017-07-10T01:29:50.197Z,19.1
2017-07-10T01:30:00.187Z,19.1
2017-07-10T01:30:10.187Z,19.1
2017-07-10T01:30:20.181Z,19.1
2017-07-10T01:30:30.226Z,19.1
2017-07-10T01:30:40.171Z,19.1
2017-07-10T01:30:50.165Z,19.2
2017-07-10T01:31:00.159Z,19.2
2017-07-10T01:31:10.155Z,19.1
2017-07-10T01:31:20.149Z,19.1
2017-07-10T01:31:30.146Z,19.1
2017-07-10T01:31:40.145Z,19.1
2017-07-10T01:31:50.137Z,19.1
2017-07-10T01:32:00.133Z,19.1
2017-07-10T01:32:10.125Z,19.2
2017-07-10T01:32:20.118Z,19.1
2017-07-10T01:32:30.115Z,19.1
2017-07-10T01:32:40.112Z,19.1
2017-07-10T01:32:50.109Z,19.2
2017-07-10T01:33:00.103Z,19.1
2017-07-10T01:33:10.099Z,19.1
2017-07-10T01:33:20.095Z,19.1
2017-07-10T01:33:30.086Z,19.2
2017-07-10T01:33:40.080Z,19.2
2017-07-10T01:33:50.079Z,19.1
2017-07-10T01:34:00.074Z,19.1
2017-07-10T01:34:10.071Z,19.2
2017-07-10T01:34:20.067Z,19.2
2017-07-10T01:34:30.055Z,19.1
2017-07-10T01:34:40.053Z,19.1
2017-07-10T01:34:50.053Z,19.2
2017-07-10T01:35:00.045Z,19.1
2017-07-10T01:35:10.038Z,19.2
2017-07-10T01:35:20.035Z,19.1
2017-07-10T01:35:30.032Z,19.1
2017-07-10T01:35:40.022Z,19.1
2017-07-10T01:35:50.022Z,19.2
2017-07-10T01:36:00.018Z,19.1
2017-07-10T01:36:10.013Z,19.1
2017-07-10T01:36:20.004Z,19.1
2017-07-10T01:36:30.007Z,19.1
2017-07-10T01:36:39.995Z,19.1
2017-07-10T01:36:49.987Z,19.1
2017-07-10T01:36:59.985Z,19.1
2017-07-10T01:37:09.981Z,19.1
2017-07-10T01:37:19.974Z,19.1
2017-07-10T01:37:29.970Z,19.1
2017-07-10T01:37:39.963Z,19.2
2017-07-10T01:37:49.959Z,19.1
2017-07-10T01:37:59.960Z,19.1
2017-07-10T01:38:09.954Z,19.1
2017-07-10T01:38:19.949Z,19.2
2017-07-10T01:38:29.943Z,19.1
2017-07-10T01:38:39.941Z,19.2
2017-07-10T01:38:49.933Z,19.2
2017-07-10T01:38:59.926Z,19.2
2017-07-10T01:39:09.926Z,19.1
2017-07-10T01:39:19.920Z,19.1
2017-07-10T01:39:29.914Z,19.2
2017-07-10T01:39:39.908Z,19
2017-07-10T01:39:49.903Z,19.1
2017-07-10T01:39:59.895Z,19
2017-07-10T01:40:09.895Z,19.1
2017-07-10T01:40:19.891Z,19
2017-07-10T01:40:29.885Z,19.1
2017-07-10T01:40:39.878Z,19
2017-07-10T01:40:49.873Z,19
2017-07-10T01:40:59.870Z,19.1
2017-07-10T01:41:09.867Z,19.1
2017-07-10T01:41:19.857Z,19
2017-07-10T01:41:29.858Z,19
2017-07-10T01:41:39.847Z,19
2017-07-10T01:41:49.842Z,19
2017-07-10T01:41:59.838Z,19
2017-07-10T01:42:09.838Z,19
2017-07-10T01:42:19.834Z,19
2017-07-10T01:42:29.822Z,19
2017-07-10T01:42:39.822Z,19.1
2017-07-10T01:42:49.815Z,19
2017-07-10T01:42:59.814Z,19
2017-07-10T01:43:09.809Z,19
2017-07-10T01:43:19.804Z,19
2017-07-10T01:43:29.796Z,19
2017-07-10T01:43:39.793Z,19.1
2017-07-10T01:43:49.789Z,19
2017-07-10T01:43:59.782Z,19
2017-07-10T01:44:09.776Z,19
2017-07-10T01:44:19.775Z,19.1
2017-07-10T01:44:29.772Z,19.1
2017-07-10T01:44:39.763Z,19.1
2017-07-10T01:44:49.758Z,19.1
2017-07-10T01:44:59.754Z,19.1
2017-07-10T01:45:09.744Z,19.1
2017-07-10T01:45:19.740Z,19
2017-07-10T01:45:29.738Z,19.1
2017-07-10T01:45:39.730Z,19
2017-07-10T01:45:49.729Z,19
2017-07-10T01:45:59.724Z,18.9
2017-07-10T01:46:09.722Z,19
2017-07-10T01:46:19.714Z,18.9
2017-07-10T01:46:29.707Z,19
2017-07-10T01:46:39.701Z,19
2017-07-10T01:46:49.697Z,19
2017-07-10T01:46:59.697Z,19
2017-07-10T01:47:09.689Z,19
2017-07-10T01:47:19.684Z,19
2017-07-10T01:47:29.681Z,18.9
2017-07-10T01:47:39.678Z,19
2017-07-10T01:47:49.670Z,19
2017-07-10T01:47:59.665Z,19
2017-07-10T01:48:09.667Z,19
2017-07-10T01:48:19.652Z,19
2017-07-10T01:48:29.650Z,18.9
2017-07-10T01:48:39.644Z,19
2017-07-10T01:48:49.638Z,19
2017-07-10T01:48:59.639Z,19
2017-07-10T01:49:09.628Z,19
2017-07-10T01:49:19.627Z,19
2017-07-10T01:49:29.623Z,18.9
2017-07-10T01:49:39.619Z,19
2017-07-10T01:49:49.611Z,19.1
2017-07-10T01:49:59.610Z,19
2017-07-10T01:50:09.601Z,19
2017-07-10T01:50:19.597Z,19
2017-07-10T01:50:29.593Z,19
2017-07-10T01:50:39.585Z,19
2017-07-10T01:50:49.585Z,19
2017-07-10T01:50:59.577Z,19
2017-07-10T01:51:09.573Z,18.9
2017-07-10T01:51:19.568Z,19
2017-07-10T01:51:29.563Z,19
2017-07-10T01:51:39.558Z,19
2017-07-10T01:51:49.553Z,19
2017-07-10T01:51:59.549Z,19
2017-07-10T01:52:09.543Z,19
2017-07-10T01:52:19.542Z,18.9
2017-07-10T01:52:29.537Z,19
2017-07-10T01:52:39.532Z,19
2017-07-10T01:52:49.524Z,19.1
2017-07-10T01:52:59.518Z,19
2017-07-10T01:53:09.512Z,19.1
2017-07-10T01:53:19.510Z,19
2017-07-10T01:53:29.504Z,19
2017-07-10T01:53:39.499Z,19
2017-07-10T01:53:49.493Z,19
2017-07-10T01:53:59.489Z,19
2017-07-10T01:54:09.482Z,19
2017-07-10T01:54:19.481Z,19.1
2017-07-10T01:54:29.476Z,19
2017-07-10T01:54:39.473Z,19
2017-07-10T01:54:49.466Z,19.1
2017-07-10T01:54:59.460Z,19.1
2017-07-10T01:55:09.456Z,19
2017-07-10T01:55:19.455Z,19
2017-07-10T01:55:29.446Z,19
2017-07-10T01:55:39.441Z,19.1
2017-07-10T01:55:49.436Z,19
2017-07-10T01:55:59.433Z,19
2017-07-10T01:56:09.427Z,19
2017-07-10T01:56:19.423Z,18.9
2017-07-10T01:56:29.416Z,19
2017-07-10T01:56:39.416Z,19
2017-07-10T01:56:49.407Z,19
2017-07-10T01:56:59.406Z,18.9
2017-07-10T01:57:09.397Z,18.9
2017-07-10T01:57:19.395Z,19
2017-07-10T01:57:29.389Z,18.9
2017-07-10T01:57:39.383Z,18.9
2017-07-10T01:57:49.380Z,18.9
2017-07-10T01:57:59.402Z,19
2017-07-10T01:58:09.370Z,18.9
2017-07-10T01:58:19.363Z,18.9
2017-07-10T01:58:29.358Z,18.9
2017-07-10T01:58:39.354Z,19
2017-07-10T01:58:49.347Z,19
2017-07-10T01:58:59.340Z,18.9
2017-07-10T01:59:09.337Z,19
2017-07-10T01:59:19.336Z,18.9
2017-07-10T01:59:29.391Z,18.9
2017-07-10T01:59:39.326Z,18.8
2017-07-10T01:59:49.317Z,18.9
2017-07-10T01:59:59.317Z,19
2017-07-10T02:00:09.310Z,18.8
2017-07-10T02:00:19.309Z,18.9
2017-07-10T02:00:29.301Z,18.9
2017-07-10T02:00:39.298Z,18.8
2017-07-10T02:00:49.294Z,18.9
2017-07-10T02:00:59.287Z,18.9
2017-07-10T02:01:09.282Z,18.9
2017-07-10T02:01:19.277Z,18.9
2017-07-10T02:01:29.272Z,18.9
2017-07-10T02:01:39.266Z,18.9
2017-07-10T02:01:49.259Z,18.9
2017-07-10T02:01:59.258Z,18.9
2017-07-10T02:02:09.251Z,18.9
2017-07-10T02:02:19.248Z,18.8
2017-07-10T02:02:29.245Z,18.9
2017-07-10T02:02:39.236Z,18.9
2017-07-10T02:02:49.234Z,18.9
2017-07-10T02:02:59.226Z,18.9
2017-07-10T02:03:09.225Z,18.8
2017-07-10T02:03:19.221Z,18.8
2017-07-10T02:03:29.216Z,18.8
2017-07-10T02:03:39.211Z,18.7
2017-07-10T02:03:49.204Z,18.9
2017-07-10T02:03:59.199Z,18.7
2017-07-10T02:04:09.192Z,18.8
2017-07-10T02:04:19.187Z,18.8
2017-07-10T02:04:29.183Z,18.9
2017-07-10T02:04:39.178Z,18.8
2017-07-10T02:04:49.177Z,18.8
2017-07-10T02:04:59.167Z,18.7
2017-07-10T02:05:09.167Z,18.8
2017-07-10T02:05:19.162Z,18.8
2017-07-10T02:05:29.154Z,18.8
2017-07-10T02:05:39.148Z,18.9
2017-07-10T02:05:49.144Z,18.8
2017-07-10T02:05:59.143Z,18.7
2017-07-10T02:06:09.136Z,18.8
2017-07-10T02:06:19.128Z,18.8
2017-07-10T02:06:29.128Z,18.9
2017-07-10T02:06:39.120Z,18.8
2017-07-10T02:06:49.117Z,18.7
2017-07-10T02:06:59.113Z,18.7
2017-07-10T02:07:09.103Z,18.7
2017-07-10T02:07:19.100Z,18.7
2017-07-10T02:07:29.096Z,18.8
2017-07-10T02:07:39.088Z,18.7
2017-07-10T02:07:49.089Z,18.7
2017-07-10T02:07:59.081Z,18.7
2017-07-10T02:08:09.076Z,18.7
2017-07-10T02:08:19.070Z,18.8
2017-07-10T02:08:29.064Z,18.7
2017-07-10T02:08:39.062Z,18.8
2017-07-10T02:08:49.056Z,18.7
2017-07-10T02:08:59.052Z,18.8
2017-07-10T02:09:09.047Z,18.7
2017-07-10T02:09:19.043Z,18.7
2017-07-10T02:09:29.035Z,18.7
2017-07-10T02:09:39.031Z,18.7
2017-07-10T02:09:49.029Z,18.7
2017-07-10T02:09:59.024Z,18.7
2017-07-10T02:10:09.020Z,18.7
2017-07-10T02:10:19.013Z,18.7
2017-07-10T02:10:29.005Z,18.7
2017-07-10T02:10:39.005Z,18.6
2017-07-10T02:10:48.996Z,18.8
2017-07-10T02:10:58.993Z,18.7
2017-07-10T02:11:08.986Z,18.7
2017-07-10T02:11:18.985Z,18.7
2017-07-10T02:11:28.982Z,18.6
2017-07-10T02:11:38.975Z,18.7
2017-07-10T02:11:48.972Z,18.7
2017-07-10T02:11:58.967Z,18.7
2017-07-10T02:12:08.959Z,18.8
2017-07-10T02:12:18.957Z,18.7
2017-07-10T02:12:28.950Z,18.7
2017-07-10T02:12:38.953Z,18.7
2017-07-10T02:12:48.941Z,18.7
2017-07-10T02:12:58.938Z,18.7
2017-07-10T02:13:08.932Z,18.7
2017-07-10T02:13:18.926Z,18.7
2017-07-10T02:13:28.924Z,18.7
2017-07-10T02:13:38.913Z,18.7
2017-07-10T02:13:48.910Z,18.7